createdAt,value
2023-04-08T00:00:59.431Z,100852.69
2023-04-08T00:03:26.193Z,100842.38
2023-04-08T00:05:52.965Z,100850.00
2023-04-08T00:08:19.563Z,100859.91
2023-04-08T00:10:46.323Z,100854.72
2023-04-08T00:13:13.352Z,100853.91
2023-04-08T00:15:40.125Z,100855.03
2023-04-08T00:18:07.396Z,100853.38
2023-04-08T00:20:34.022Z,100850.13
2023-04-08T00:23:00.837Z,100851.00
2023-04-08T00:25:27.435Z,100851.00
2023-04-08T00:27:54.057Z,100869.03
2023-04-08T00:30:21.372Z,100867.69
2023-04-08T00:32:48.143Z,100866.97
2023-04-08T00:35:15.154Z,100861.50
2023-04-08T00:37:44.255Z,100865.91
2023-04-08T00:40:11.057Z,100866.53
2023-04-08T00:42:37.711Z,100847.75
2023-04-08T00:45:04.775Z,100866.53
2023-04-08T00:47:31.459Z,100865.41
2023-04-08T00:49:58.136Z,100853.38
2023-04-08T00:52:24.776Z,100865.91
2023-04-08T00:54:51.389Z,100863.72
2023-04-08T00:57:18.542Z,100871.13
2023-04-08T00:59:45.219Z,100872.97
2023-04-08T01:02:24.091Z,100856.03
2023-04-08T01:04:56.288Z,100856.94
2023-04-08T01:07:28.363Z,100869.78
2023-04-08T01:09:56.337Z,100858.28
2023-04-08T01:12:32.533Z,100864.84
2023-04-08T01:15:08.643Z,100853.88
2023-04-08T01:17:35.862Z,100862.66
2023-04-08T01:20:04.354Z,100870.00
2023-04-08T01:22:54.785Z,100870.75
2023-04-08T01:25:23.561Z,100861.50
2023-04-08T01:27:50.370Z,100866.38
2023-04-08T01:30:20.065Z,100873.50
2023-04-08T01:32:46.736Z,100868.41
2023-04-08T01:35:15.791Z,100853.19
2023-04-08T01:37:42.407Z,100865.19
2023-04-08T01:40:09.263Z,100868.16
2023-04-08T01:42:37.350Z,100862.09
2023-04-08T01:45:04.239Z,100864.28
2023-04-08T01:47:30.942Z,100845.16
2023-04-08T01:49:57.550Z,100850.66
2023-04-08T01:52:24.127Z,100838.75
2023-04-08T01:54:50.735Z,100838.00
2023-04-08T01:57:24.389Z,100849.59
2023-04-08T01:59:52.069Z,100855.06
2023-04-08T02:02:20.730Z,100834.84
2023-04-08T02:04:47.476Z,100856.13
2023-04-08T02:07:14.460Z,100852.94
2023-04-08T02:09:41.885Z,100852.44
2023-04-08T02:12:08.449Z,100860.16
2023-04-08T02:14:35.245Z,100850.19
2023-04-08T02:17:25.447Z,100850.06
2023-04-08T02:20:11.484Z,100866.66
2023-04-08T02:22:48.505Z,100837.16
2023-04-08T02:25:16.053Z,100856.63
2023-04-08T02:27:43.047Z,100860.56
2023-04-08T02:30:11.079Z,100861.03
2023-04-08T02:32:37.806Z,100853.47
2023-04-08T02:35:05.119Z,100861.63
2023-04-08T02:37:32.124Z,100852.00
2023-04-08T02:39:58.751Z,100866.84
2023-04-08T02:42:25.754Z,100853.81
2023-04-08T02:44:52.957Z,100867.69
2023-04-08T02:47:19.557Z,100868.56
2023-04-08T02:49:46.311Z,100862.03
2023-04-08T02:52:12.961Z,100842.38
2023-04-08T02:54:39.523Z,100850.47
2023-04-08T02:57:06.338Z,100861.81
2023-04-08T02:59:32.931Z,100854.22
2023-04-08T03:01:59.633Z,100859.13
2023-04-08T03:04:27.062Z,100847.63
2023-04-08T03:06:53.647Z,100863.06
2023-04-08T03:09:20.166Z,100846.09
2023-04-08T03:11:52.606Z,100854.81
2023-04-08T03:14:19.240Z,100861.13
2023-04-08T03:16:46.029Z,100858.25
2023-04-08T03:19:12.648Z,100855.00
2023-04-08T03:21:39.290Z,100856.63
2023-04-08T03:24:06.067Z,100867.84
2023-04-08T03:26:32.682Z,100862.13
2023-04-08T03:28:59.310Z,100870.38
2023-04-08T03:31:26.100Z,100869.75
2023-04-08T03:33:52.729Z,100873.13
2023-04-08T03:36:19.384Z,100865.69
2023-04-08T03:38:46.155Z,100873.72
2023-04-08T03:41:12.777Z,100862.72
2023-04-08T03:43:39.464Z,100868.13
2023-04-08T03:46:06.234Z,100870.97
2023-04-08T03:48:32.907Z,100880.22
2023-04-08T03:50:59.688Z,100870.13
2023-04-08T03:53:28.072Z,100870.44
2023-04-08T03:55:55.358Z,100873.72
2023-04-08T03:58:21.908Z,100874.81
2023-04-08T04:00:48.563Z,100872.06
2023-04-08T04:03:15.255Z,100871.56
2023-04-08T04:05:41.997Z,100869.63
2023-04-08T04:08:09.455Z,100879.25
2023-04-08T04:10:36.161Z,100883.03
2023-04-08T04:13:02.680Z,100874.09
2023-04-08T04:15:29.295Z,100878.13
2023-04-08T04:17:55.894Z,100875.41
2023-04-08T04:20:22.563Z,100879.25
2023-04-08T04:22:49.134Z,100875.94
2023-04-08T04:25:15.776Z,100846.03
2023-04-08T04:27:42.341Z,100886.91
2023-04-08T04:30:09.649Z,100878.13
2023-04-08T04:32:36.566Z,100885.72
2023-04-08T04:35:03.305Z,100889.88
2023-04-08T04:37:29.908Z,100887.50
2023-04-08T04:39:56.549Z,100894.38
2023-04-08T04:42:23.184Z,100887.59
2023-04-08T04:44:49.768Z,100899.06
2023-04-08T04:47:16.524Z,100890.03
2023-04-08T04:49:43.117Z,100889.00
2023-04-08T04:52:09.701Z,100885.72
2023-04-08T04:54:36.251Z,100894.00
2023-04-08T04:57:02.838Z,100896.84
2023-04-08T04:59:29.425Z,100901.53
2023-04-08T05:01:57.585Z,100877.13
2023-04-08T05:04:24.803Z,100901.59
2023-04-08T05:06:51.360Z,100901.38
2023-04-08T05:09:17.987Z,100898.63
2023-04-08T05:11:44.525Z,100910.63
2023-04-08T05:14:11.149Z,100905.75
2023-04-08T05:16:38.740Z,100903.09
2023-04-08T05:19:05.380Z,100909.59
2023-04-08T05:21:32.607Z,100918.97
2023-04-08T05:23:59.209Z,100919.78
2023-04-08T05:26:26.348Z,100915.09
2023-04-08T05:28:53.033Z,100927.34
2023-04-08T05:31:19.943Z,100923.88
2023-04-08T05:33:46.932Z,100918.59
2023-04-08T05:36:13.795Z,100920.44
2023-04-08T05:38:40.901Z,100920.44
2023-04-08T05:41:07.503Z,100925.13
2023-04-08T05:43:34.491Z,100925.19
2023-04-08T05:46:01.214Z,100917.03
2023-04-08T05:48:27.794Z,100934.09
2023-04-08T05:50:57.321Z,100931.66
2023-04-08T05:53:24.984Z,100940.25
2023-04-08T05:55:51.591Z,100939.66
2023-04-08T05:58:18.122Z,100938.03
2023-04-08T06:00:44.761Z,100950.63
2023-04-08T06:03:11.602Z,100952.34
2023-04-08T06:05:38.309Z,100935.88
2023-04-08T06:08:05.243Z,100957.03
2023-04-08T06:10:31.849Z,100933.31
2023-04-08T06:12:59.131Z,100960.28
2023-04-08T06:15:26.001Z,100964.94
2023-04-08T06:17:52.643Z,100959.22
2023-04-08T06:20:19.261Z,100955.38
2023-04-08T06:22:46.255Z,100917.63
2023-04-08T06:25:12.843Z,100958.06
2023-04-08T06:27:39.406Z,100965.94
2023-04-08T06:30:06.941Z,100950.41
2023-04-08T06:32:33.592Z,100967.06
2023-04-08T06:35:00.193Z,100962.38
2023-04-08T06:37:26.767Z,100969.13
2023-04-08T06:39:53.328Z,100969.72
2023-04-08T06:42:20.081Z,100970.53
2023-04-08T06:45:20.437Z,100964.81
2023-04-08T06:47:47.113Z,100978.16
2023-04-08T06:50:13.786Z,100970.75
2023-04-08T06:52:40.435Z,100971.81
2023-04-08T06:55:10.026Z,100970.16
2023-04-08T06:57:36.853Z,100972.03
2023-04-08T07:00:03.610Z,100970.00
2023-04-08T07:02:30.188Z,100978.69
2023-04-08T07:04:56.834Z,100979.59
2023-04-08T07:07:24.247Z,100978.09
2023-04-08T07:09:51.444Z,100984.13
2023-04-08T07:12:18.079Z,100968.38
2023-04-08T07:14:44.673Z,100981.91
2023-04-08T07:17:11.276Z,100988.13
2023-04-08T07:19:38.056Z,101000.16
2023-04-08T07:22:04.632Z,100993.53
2023-04-08T07:24:31.306Z,101000.81
2023-04-08T07:26:58.169Z,100985.97
2023-04-08T07:29:24.826Z,101010.84
2023-04-08T07:31:51.714Z,101012.09
2023-04-08T07:34:18.326Z,101007.56
2023-04-08T07:36:44.902Z,101007.13
2023-04-08T07:39:11.579Z,101005.13
2023-04-08T07:41:38.324Z,101019.88
2023-04-08T07:44:04.873Z,101006.06
2023-04-08T07:46:31.679Z,101014.00
2023-04-08T07:48:58.555Z,101017.00
2023-04-08T07:51:25.168Z,101016.94
2023-04-08T07:53:51.770Z,101008.94
2023-04-08T07:56:18.615Z,101016.53
2023-04-08T07:58:45.388Z,101015.19
2023-04-08T08:01:19.968Z,101025.47
2023-04-08T08:03:47.990Z,101017.13
2023-04-08T08:06:15.307Z,100994.34
2023-04-08T08:08:41.904Z,100994.28
2023-04-08T08:11:08.568Z,101022.69
2023-04-08T08:13:35.183Z,101027.00
2023-04-08T08:16:01.893Z,101024.84
2023-04-08T08:18:28.451Z,101021.88
2023-04-08T08:20:55.148Z,101036.31
2023-04-08T08:23:22.094Z,101039.25
2023-04-08T08:25:48.654Z,101041.19
2023-04-08T08:28:15.208Z,101025.06
2023-04-08T08:30:41.804Z,101039.69
2023-04-08T08:33:08.514Z,101041.56
2023-04-08T08:35:35.364Z,101004.19
2023-04-08T08:38:01.918Z,101037.59
2023-04-08T08:40:28.515Z,101039.13
2023-04-08T08:42:55.364Z,101042.59
2023-04-08T08:45:21.991Z,101050.81
2023-04-08T08:47:50.865Z,101051.34
2023-04-08T08:50:17.898Z,101052.41
2023-04-08T08:52:51.402Z,101049.97
2023-04-08T08:55:34.930Z,101054.63
2023-04-08T08:58:07.960Z,101055.16
2023-04-08T09:00:39.094Z,101052.03
2023-04-08T09:03:16.073Z,101043.72
2023-04-08T09:05:59.757Z,101066.00
2023-04-08T09:08:27.053Z,101068.16
2023-04-08T09:10:54.520Z,101057.88
2023-04-08T09:13:23.431Z,101064.06
2023-04-08T09:16:04.167Z,101060.53
2023-04-08T09:18:31.369Z,101057.13
2023-04-08T09:21:00.645Z,101073.28
2023-04-08T09:23:42.753Z,101049.47
2023-04-08T09:26:16.325Z,101067.63
2023-04-08T09:28:43.943Z,101057.53
2023-04-08T09:31:21.925Z,101055.88
2023-04-08T09:33:56.407Z,101051.50
2023-04-08T09:36:23.198Z,101055.38
2023-04-08T09:38:49.777Z,101058.63
2023-04-08T09:41:17.786Z,101062.72
2023-04-08T09:43:49.605Z,101065.41
2023-04-08T09:46:18.314Z,101055.88
2023-04-08T09:48:58.575Z,101064.50
2023-04-08T09:51:25.179Z,101047.03
2023-04-08T09:54:00.942Z,101063.16
2023-04-08T09:56:31.574Z,101049.28
2023-04-08T09:58:59.683Z,101054.56
2023-04-08T10:01:36.503Z,101054.56
2023-04-08T10:04:03.457Z,101055.38
2023-04-08T10:06:31.338Z,101067.44
2023-04-08T10:08:58.229Z,101053.56
2023-04-08T10:11:24.823Z,101049.97
2023-04-08T10:13:51.719Z,101063.34
2023-04-08T10:16:22.787Z,101065.81
2023-04-08T10:18:52.792Z,101064.06
2023-04-08T10:21:40.414Z,101067.34
2023-04-08T10:24:08.060Z,101067.97
2023-04-08T10:26:44.484Z,101071.81
2023-04-08T10:29:21.383Z,101077.63
2023-04-08T10:31:48.893Z,101061.59
2023-04-08T10:34:19.034Z,101073.38
2023-04-08T10:36:47.129Z,101072.19
2023-04-08T10:39:14.728Z,101078.50
2023-04-08T10:41:48.275Z,101071.22
2023-04-08T10:44:22.380Z,101063.00
2023-04-08T10:46:50.344Z,101069.03
2023-04-08T10:49:17.561Z,101073.16
2023-04-08T10:51:44.386Z,101059.81
2023-04-08T10:54:12.248Z,101067.72
2023-04-08T10:56:46.417Z,101067.69
2023-04-08T10:59:16.387Z,101059.59
2023-04-08T11:01:45.182Z,101072.63
2023-04-08T11:04:16.558Z,101046.22
2023-04-08T11:06:44.136Z,101067.16
2023-04-08T11:09:11.090Z,101053.50
2023-04-08T11:11:37.951Z,101033.34
2023-04-08T11:14:05.885Z,101060.47
2023-04-08T11:16:32.706Z,101054.53
2023-04-08T11:18:59.654Z,101019.41
2023-04-08T11:21:29.462Z,101069.22
2023-04-08T11:23:56.366Z,101073.06
2023-04-08T11:26:23.144Z,101066.97
2023-04-08T11:28:51.468Z,101066.16
2023-04-08T11:31:19.399Z,101054.97
2023-04-08T11:33:48.440Z,101068.53
2023-04-08T11:36:15.676Z,101053.84
2023-04-08T11:38:42.357Z,101056.22
2023-04-08T11:41:08.972Z,101072.31
2023-04-08T11:43:36.732Z,101066.81
2023-04-08T11:46:12.811Z,101066.97
2023-04-08T11:48:39.785Z,101067.84
2023-04-08T11:51:09.189Z,101063.78
2023-04-08T11:53:38.715Z,101070.09
2023-04-08T11:56:21.366Z,101060.34
2023-04-08T11:58:48.003Z,101040.53
2023-04-08T12:01:14.707Z,101009.31
2023-04-08T12:03:55.465Z,101062.81
2023-04-08T12:06:23.352Z,101049.06
2023-04-08T12:08:50.503Z,101060.72
2023-04-08T12:11:19.853Z,101049.97
2023-04-08T12:13:46.733Z,101066.94
2023-04-08T12:16:14.342Z,101065.72
2023-04-08T12:18:44.773Z,101056.88
2023-04-08T12:21:11.473Z,101051.50
2023-04-08T12:23:38.111Z,101065.34
2023-04-08T12:26:04.796Z,101064.63
2023-04-08T12:28:31.351Z,101036.94
2023-04-08T12:30:57.955Z,101072.25
2023-04-08T12:33:24.566Z,101062.69
2023-04-08T12:35:51.394Z,101034.84
2023-04-08T12:38:18.127Z,101062.31
2023-04-08T12:40:44.785Z,101061.50
2023-04-08T12:43:11.852Z,101065.72
2023-04-08T12:45:38.486Z,101061.38
2023-04-08T12:48:05.131Z,101065.53
2023-04-08T12:50:31.742Z,101063.69
2023-04-08T12:52:58.373Z,101066.94
2023-04-08T12:55:25.106Z,101062.88
2023-04-08T12:57:52.390Z,101071.03
2023-04-08T13:00:19.558Z,101051.66
2023-04-08T13:02:46.671Z,101052.22
2023-04-08T13:05:13.429Z,101056.09
2023-04-08T13:07:40.509Z,101054.91
2023-04-08T13:10:08.445Z,101057.16
2023-04-08T13:12:35.136Z,101029.59
2023-04-08T13:15:01.795Z,101057.59
2023-04-08T13:17:28.571Z,101054.41
2023-04-08T13:19:55.507Z,101030.63
2023-04-08T13:22:22.147Z,101054.63
2023-04-08T13:24:48.885Z,101050.44
2023-04-08T13:27:15.603Z,101042.28
2023-04-08T13:29:42.177Z,100996.78
2023-04-08T13:32:08.831Z,101047.59
2023-04-08T13:34:35.800Z,101046.19
2023-04-08T13:37:03.158Z,101041.50
2023-04-08T13:39:29.750Z,101040.09
2023-04-08T13:41:56.948Z,101044.06
2023-04-08T13:44:23.642Z,101032.25
2023-04-08T13:46:50.791Z,101042.34
2023-04-08T13:49:20.392Z,101035.03
2023-04-08T13:51:47.065Z,101033.59
2023-04-08T13:54:14.787Z,101039.81
2023-04-08T13:56:41.330Z,101055.41
2023-04-08T13:59:10.322Z,101044.91
2023-04-08T14:01:37.111Z,101040.53
2023-04-08T14:04:03.801Z,101035.63
2023-04-08T14:06:31.103Z,101012.81
2023-04-08T14:09:00.489Z,101049.75
2023-04-08T14:11:29.975Z,101034.22
2023-04-08T14:13:56.571Z,101029.72
2023-04-08T14:16:23.243Z,101034.09
2023-04-08T14:18:50.119Z,101035.16
2023-04-08T14:21:18.208Z,101024.22
2023-04-08T14:23:44.909Z,101029.63
2023-04-08T14:26:14.301Z,101029.13
2023-04-08T14:28:40.948Z,101019.25
2023-04-08T14:31:07.708Z,101023.59
2023-04-08T14:33:34.341Z,101016.69
2023-04-08T14:36:01.134Z,101022.22
2023-04-08T14:38:27.837Z,101025.44
2023-04-08T14:40:54.757Z,101018.94
2023-04-08T14:43:21.429Z,101022.69
2023-04-08T14:45:49.966Z,101019.94
2023-04-08T14:48:16.616Z,101026.91
2023-04-08T14:50:43.467Z,101026.91
2023-04-08T14:53:10.516Z,101014.75
2023-04-08T14:55:37.200Z,101029.13
2023-04-08T14:58:04.039Z,100998.03
2023-04-08T15:00:30.899Z,101026.75
2023-04-08T15:02:57.692Z,101028.72
2023-04-08T15:05:24.414Z,101032.34
2023-04-08T15:07:51.064Z,101034.41
2023-04-08T15:10:17.768Z,101023.47
2023-04-08T15:12:44.386Z,101039.31
2023-04-08T15:15:11.260Z,101044.22
2023-04-08T15:17:37.952Z,101039.91
2023-04-08T15:20:05.663Z,101040.19
2023-04-08T15:22:33.004Z,101046.44
2023-04-08T15:24:59.583Z,101048.66
2023-04-08T15:27:26.661Z,101044.16
2023-04-08T15:29:53.400Z,101038.03
2023-04-08T15:32:20.004Z,101044.56
2023-04-08T15:34:47.380Z,101045.19
2023-04-08T15:37:14.023Z,101037.53
2023-04-08T15:39:41.747Z,101045.28
2023-04-08T15:42:08.728Z,101044.47
2023-04-08T15:44:35.393Z,101011.19
2023-04-08T15:47:02.647Z,101052.38
2023-04-08T15:49:29.425Z,101054.13
2023-04-08T15:51:56.061Z,101057.81
2023-04-08T15:54:22.594Z,101017.78
2023-04-08T15:56:49.248Z,101056.19
2023-04-08T15:59:16.012Z,101059.34
2023-04-08T16:01:42.724Z,101049.84
2023-04-08T16:04:09.704Z,101059.22
2023-04-08T16:06:36.631Z,101049.41
2023-04-08T16:09:03.296Z,101043.91
2023-04-08T16:11:29.944Z,101062.91
2023-04-08T16:13:57.319Z,101059.56
2023-04-08T16:16:23.961Z,101060.56
2023-04-08T16:18:50.825Z,101066.09
2023-04-08T16:21:18.589Z,101072.00
2023-04-08T16:23:45.212Z,101071.41
2023-04-08T16:26:12.794Z,101073.72
2023-04-08T16:28:39.959Z,101074.00
2023-04-08T16:31:07.016Z,101077.81
2023-04-08T16:33:33.803Z,101074.34
2023-04-08T16:36:00.498Z,101062.91
2023-04-08T16:38:27.229Z,101072.44
2023-04-08T16:40:56.739Z,101073.50
2023-04-08T16:43:24.753Z,101077.66
2023-04-08T16:45:52.352Z,101086.19
2023-04-08T16:48:19.193Z,101084.56
2023-04-08T16:50:46.051Z,101087.31
2023-04-08T16:53:12.683Z,101088.94
2023-04-08T16:55:39.265Z,101094.38
2023-04-08T16:58:06.064Z,101092.44
2023-04-08T17:00:32.650Z,101097.13
2023-04-08T17:03:00.643Z,101102.84
2023-04-08T17:05:27.407Z,101094.22
2023-04-08T17:07:56.308Z,101092.00
2023-04-08T17:10:23.235Z,101117.13
2023-04-08T17:12:49.858Z,101114.97
2023-04-08T17:15:16.445Z,101114.06
2023-04-08T17:17:43.125Z,101116.28
2023-04-08T17:20:10.391Z,101117.34
2023-04-08T17:22:37.030Z,101116.94
2023-04-08T17:25:03.916Z,101124.66
2023-04-08T17:27:30.737Z,101123.22
2023-04-08T17:29:57.920Z,101127.28
2023-04-08T17:32:24.886Z,101108.28
2023-04-08T17:34:52.314Z,101128.06
2023-04-08T17:37:18.973Z,101130.31
2023-04-08T17:39:45.937Z,101130.88
2023-04-08T17:42:13.150Z,101133.09
2023-04-08T17:44:42.149Z,101137.78
2023-04-08T17:47:08.853Z,101132.88
2023-04-08T17:49:35.521Z,101136.16
2023-04-08T17:52:05.983Z,101136.97
2023-04-08T17:54:34.437Z,101107.56
2023-04-08T17:57:01.577Z,101154.34
2023-04-08T17:59:28.243Z,101153.34
2023-04-08T18:01:55.139Z,101096.56
2023-04-08T18:04:22.899Z,101141.84
2023-04-08T18:06:49.656Z,101156.03
2023-04-08T18:09:16.294Z,101161.69
2023-04-08T18:11:42.892Z,101154.50
2023-04-08T18:14:09.696Z,101154.50
2023-04-08T18:16:36.345Z,101144.41
2023-04-08T18:19:02.995Z,101155.88
2023-04-08T18:21:29.600Z,101158.84
2023-04-08T18:23:56.206Z,101161.09
2023-04-08T18:26:22.835Z,101171.47
2023-04-08T18:28:49.535Z,101166.06
2023-04-08T18:31:16.680Z,101173.13
2023-04-08T18:33:45.322Z,101169.06
2023-04-08T18:36:12.552Z,101168.81
2023-04-08T18:38:40.754Z,101163.88
2023-04-08T18:41:07.649Z,101183.13
2023-04-08T18:43:34.232Z,101183.69
2023-04-08T18:46:03.012Z,101185.00
2023-04-08T18:48:29.737Z,101174.97
2023-04-08T18:50:56.727Z,101188.72
2023-04-08T18:53:23.395Z,101185.44
2023-04-08T18:55:51.146Z,101171.75
2023-04-08T18:58:18.239Z,101194.81
2023-04-08T19:00:47.885Z,101192.88
2023-04-08T19:03:15.178Z,101201.72
2023-04-08T19:05:42.338Z,101189.19
2023-04-08T19:08:09.008Z,101215.00
2023-04-08T19:10:36.110Z,101205.69
2023-04-08T19:13:03.041Z,101205.53
2023-04-08T19:15:30.390Z,101207.31
2023-04-08T19:17:57.003Z,101219.44
2023-04-08T19:20:23.819Z,101202.34
2023-04-08T19:22:51.134Z,101216.75
2023-04-08T19:25:18.039Z,101203.88
2023-04-08T19:27:46.419Z,101209.97
2023-04-08T19:30:13.418Z,101215.47
2023-04-08T19:32:40.442Z,101173.69
2023-04-08T19:35:07.595Z,101214.66
2023-04-08T19:37:34.733Z,101224.69
2023-04-08T19:40:01.458Z,101221.44
2023-04-08T19:42:28.112Z,101218.16
2023-04-08T19:44:55.193Z,101223.34
2023-04-08T19:47:22.128Z,101218.69
2023-04-08T19:49:48.823Z,101233.16
2023-04-08T19:52:15.422Z,101223.28
2023-04-08T19:54:43.566Z,101225.94
2023-04-08T19:57:10.888Z,101220.91
2023-04-08T19:59:38.150Z,101220.38
2023-04-08T20:02:05.116Z,101224.03
2023-04-08T20:04:32.134Z,101217.13
2023-04-08T20:07:02.310Z,101210.88
2023-04-08T20:09:32.628Z,101228.34
2023-04-08T20:12:04.423Z,101239.34
2023-04-08T20:14:35.536Z,101233.25
2023-04-08T20:17:02.394Z,101240.38
2023-04-08T20:19:29.016Z,101236.66
2023-04-08T20:21:56.208Z,101234.66
2023-04-08T20:24:26.329Z,101232.59
2023-04-08T20:26:53.412Z,101225.97
2023-04-08T20:29:20.063Z,101229.75
2023-04-08T20:31:47.174Z,101223.56
2023-04-08T20:34:14.088Z,101234.72
2023-04-08T20:36:41.104Z,101236.94
2023-04-08T20:39:10.839Z,101235.53
2023-04-08T20:41:37.686Z,101220.22
2023-04-08T20:44:06.760Z,101225.13
2023-04-08T20:46:33.460Z,101237.16
2023-04-08T20:49:00.107Z,101230.03
2023-04-08T20:51:27.275Z,101241.84
2023-04-08T20:53:53.985Z,101228.19
2023-04-08T20:56:21.087Z,101234.72
2023-04-08T20:58:47.698Z,101245.19
2023-04-08T21:01:14.338Z,101242.44
2023-04-08T21:03:41.148Z,101212.84
2023-04-08T21:06:07.929Z,101237.31
2023-04-08T21:08:34.508Z,101241.50
2023-04-08T21:11:01.201Z,101242.31
2023-04-08T21:13:27.792Z,101242.91
2023-04-08T21:15:54.400Z,101240.16
2023-04-08T21:18:20.993Z,101245.66
2023-04-08T21:20:49.369Z,101232.59
2023-04-08T21:23:16.161Z,101244.03
2023-04-08T21:25:42.818Z,101230.34
2023-04-08T21:28:09.364Z,101241.28
2023-04-08T21:30:35.964Z,101244.03
2023-04-08T21:33:02.591Z,101239.13
2023-04-08T21:35:29.230Z,101238.91
2023-04-08T21:37:56.341Z,101241.34
2023-04-08T21:40:22.933Z,101216.94
2023-04-08T21:42:49.609Z,101238.44
2023-04-08T21:45:16.902Z,101228.03
2023-04-08T21:47:43.712Z,101236.19
2023-04-08T21:50:10.644Z,101235.38
2023-04-08T21:52:37.352Z,101240.88
2023-04-08T21:55:04.412Z,101240.56
2023-04-08T21:57:31.247Z,101247.75
2023-04-08T21:59:57.806Z,101240.44
2023-04-08T22:02:24.639Z,101255.22
2023-04-08T22:04:52.033Z,101254.19
2023-04-08T22:07:18.666Z,101242.41
2023-04-08T22:09:45.220Z,101234.72
2023-04-08T22:12:11.849Z,101221.47
2023-04-08T22:14:38.409Z,101247.56
2023-04-08T22:17:05.048Z,101255.00
2023-04-08T22:19:31.907Z,101255.88
2023-04-08T22:21:58.706Z,101244.34
2023-04-08T22:24:25.304Z,101236.47
2023-04-08T22:26:53.012Z,101244.91
2023-04-08T22:29:19.601Z,101245.34
2023-04-08T22:31:46.298Z,101256.84
2023-04-08T22:34:12.947Z,101244.31
2023-04-08T22:36:39.626Z,101247.56
2023-04-08T22:39:06.221Z,101227.94
2023-04-08T22:41:32.840Z,101249.28
2023-04-08T22:43:59.559Z,101238.94
2023-04-08T22:46:26.576Z,101247.09
2023-04-08T22:48:53.433Z,101246.66
2023-04-08T22:51:20.813Z,101250.97
2023-04-08T22:53:47.364Z,101247.34
2023-04-08T22:56:14.019Z,101245.13
2023-04-08T22:58:41.042Z,101251.97
2023-04-08T23:01:14.691Z,101241.47
2023-04-08T23:03:41.707Z,101253.06
2023-04-08T23:06:08.367Z,101243.22
2023-04-08T23:08:34.988Z,101241.03
2023-04-08T23:11:01.541Z,101249.31
2023-04-08T23:13:28.393Z,101210.59
2023-04-08T23:15:55.113Z,101246.81
2023-04-08T23:18:21.808Z,101239.41
2023-04-08T23:20:55.312Z,101249.81
2023-04-08T23:23:24.071Z,101249.81
2023-04-08T23:25:51.180Z,101248.47
2023-04-08T23:28:17.818Z,101252.84
2023-04-08T23:30:44.388Z,101241.69
2023-04-08T23:33:11.018Z,101249.63
2023-04-08T23:35:39.212Z,101252.75
2023-04-08T23:38:05.877Z,101242.91
2023-04-08T23:40:32.474Z,101252.28
2023-04-08T23:42:59.041Z,101253.91
2023-04-08T23:45:25.584Z,101240.38
2023-04-08T23:47:52.276Z,101260.34
2023-04-08T23:50:20.262Z,101260.94
2023-04-08T23:52:46.859Z,101247.03
2023-04-08T23:55:13.524Z,101236.63
2023-04-08T23:57:42.918Z,101251.59
